sensor_id;sensor_type;location;lat;lon;timestamp;pressure;altitude;pressure_sealevel;temperature;humidity
55068;BME280;40965;52.368;9.712;2023-09-08T00:00:12;101296.41;;;19.36;72.59
55068;BME280;40965;52.368;9.712;2023-09-08T00:02:39;101294.47;;;19.41;72.71
55068;BME280;40965;52.368;9.712;2023-09-08T00:05:08;101294.69;;;19.34;72.95
55068;BME280;40965;52.368;9.712;2023-09-08T00:07:35;101294.84;;;19.30;72.73
55068;BME280;40965;52.368;9.712;2023-09-08T00:10:03;101292.31;;;19.27;73.81
55068;BME280;40965;52.368;9.712;2023-09-08T00:12:30;101292.41;;;19.24;73.77
55068;BME280;40965;52.368;9.712;2023-09-08T00:14:57;101294.28;;;19.20;73.67
55068;BME280;40965;52.368;9.712;2023-09-08T00:17:23;101288.19;;;19.18;73.94
55068;BME280;40965;52.368;9.712;2023-09-08T00:19:50;101282.19;;;19.13;74.19
55068;BME280;40965;52.368;9.712;2023-09-08T00:22:16;101283.22;;;19.09;74.50
55068;BME280;40965;52.368;9.712;2023-09-08T00:24:43;101283.34;;;19.04;75.11
55068;BME280;40965;52.368;9.712;2023-09-08T00:27:13;101280.81;;;19.01;75.41
55068;BME280;40965;52.368;9.712;2023-09-08T00:29:42;101280.88;;;18.99;75.92
55068;BME280;40965;52.368;9.712;2023-09-08T00:32:09;101282.66;;;18.99;76.91
55068;BME280;40965;52.368;9.712;2023-09-08T00:34:36;101277.47;;;18.96;76.31
55068;BME280;40965;52.368;9.712;2023-09-08T00:37:03;101278.44;;;18.93;77.17
55068;BME280;40965;52.368;9.712;2023-09-08T00:39:34;101286.56;;;18.87;77.52
55068;BME280;40965;52.368;9.712;2023-09-08T00:42:02;101278.59;;;18.87;76.77
55068;BME280;40965;52.368;9.712;2023-09-08T00:44:29;101278.72;;;18.82;77.32
55068;BME280;40965;52.368;9.712;2023-09-08T00:46:56;101280.47;;;18.83;77.42
55068;BME280;40965;52.368;9.712;2023-09-08T00:49:22;101277.16;;;18.77;77.92
55068;BME280;40965;52.368;9.712;2023-09-08T00:51:49;101277.28;;;18.74;78.06
55068;BME280;40965;52.368;9.712;2023-09-08T00:54:18;101281.75;;;18.72;77.65
55068;BME280;40965;52.368;9.712;2023-09-08T00:56:44;101268.66;;;18.67;78.27
55068;BME280;40965;52.368;9.712;2023-09-08T00:59:12;101268.75;;;18.64;78.77
55068;BME280;40965;52.368;9.712;2023-09-08T01:01:39;101270.72;;;18.57;78.75
55068;BME280;40965;52.368;9.712;2023-09-08T01:04:05;101266.41;;;18.55;79.74
55068;BME280;40965;52.368;9.712;2023-09-08T01:06:32;101270.94;;;18.51;79.87
55068;BME280;40965;52.368;9.712;2023-09-08T01:08:59;101268.50;;;18.43;80.12
55068;BME280;40965;52.368;9.712;2023-09-08T01:11:26;101267.78;;;18.38;80.09
55068;BME280;40965;52.368;9.712;2023-09-08T01:13:53;101269.59;;;18.38;80.32
55068;BME280;40965;52.368;9.712;2023-09-08T01:16:23;101274.94;;;18.36;80.45
55068;BME280;40965;52.368;9.712;2023-09-08T01:18:50;101275.06;;;18.33;80.57
55068;BME280;40965;52.368;9.712;2023-09-08T01:21:52;101282.00;;;18.37;80.98
55068;BME280;40965;52.368;9.712;2023-09-08T01:27:55;101280.34;;;18.33;81.18
55068;BME280;40965;52.368;9.712;2023-09-08T01:30:28;101280.50;;;18.28;81.62
55068;BME280;40965;52.368;9.712;2023-09-08T01:32:58;101277.94;;;18.25;81.64
55068;BME280;40965;52.368;9.712;2023-09-08T01:35:25;101274.56;;;18.20;81.42
55068;BME280;40965;52.368;9.712;2023-09-08T01:37:52;101270.22;;;18.17;81.42
55068;BME280;40965;52.368;9.712;2023-09-08T01:40:22;101270.25;;;18.16;82.47
55068;BME280;40965;52.368;9.712;2023-09-08T01:42:49;101272.28;;;18.08;82.70
55068;BME280;40965;52.368;9.712;2023-09-08T01:45:16;101267.09;;;18.05;82.56
55068;BME280;40965;52.368;9.712;2023-09-08T01:47:42;101265.34;;;18.04;83.32
55068;BME280;40965;52.368;9.712;2023-09-08T01:50:09;101266.34;;;17.99;83.02
55068;BME280;40965;52.368;9.712;2023-09-08T01:52:36;101272.66;;;17.95;83.43
55068;BME280;40965;52.368;9.712;2023-09-08T01:55:02;101264.72;;;17.94;83.59
55068;BME280;40965;52.368;9.712;2023-09-08T01:57:29;101260.31;;;17.94;84.03
55068;BME280;40965;52.368;9.712;2023-09-08T01:59:56;101264.91;;;17.88;84.98
55068;BME280;40965;52.368;9.712;2023-09-08T02:02:22;101264.91;;;17.88;84.68
55068;BME280;40965;52.368;9.712;2023-09-08T02:04:52;101265.03;;;17.83;85.48
55068;BME280;40965;52.368;9.712;2023-09-08T02:07:20;101266.03;;;17.79;85.59
55068;BME280;40965;52.368;9.712;2023-09-08T02:09:46;101262.53;;;17.78;85.09
55068;BME280;40965;52.368;9.712;2023-09-08T02:12:13;101264.47;;;17.72;86.09
55068;BME280;40965;52.368;9.712;2023-09-08T02:14:39;101262.88;;;17.66;86.33
55068;BME280;40965;52.368;9.712;2023-09-08T02:17:06;101261.28;;;17.60;86.97
55068;BME280;40965;52.368;9.712;2023-09-08T02:19:32;101261.28;;;17.60;87.42
55068;BME280;40965;52.368;9.712;2023-09-08T02:21:59;101256.00;;;17.60;87.39
55068;BME280;40965;52.368;9.712;2023-09-08T02:24:27;101252.59;;;17.55;87.63
55068;BME280;40965;52.368;9.712;2023-09-08T02:26:54;101253.59;;;17.51;88.07
55068;BME280;40965;52.368;9.712;2023-09-08T02:29:20;101257.16;;;17.50;88.81
55068;BME280;40965;52.368;9.712;2023-09-08T02:31:47;101251.97;;;17.45;89.02
55068;BME280;40965;52.368;9.712;2023-09-08T02:34:14;101255.59;;;17.43;89.13
55068;BME280;40965;52.368;9.712;2023-09-08T02:36:43;101255.69;;;17.40;89.57
55068;BME280;40965;52.368;9.712;2023-09-08T02:39:12;101254.88;;;17.36;89.74
55068;BME280;40965;52.368;9.712;2023-09-08T02:41:39;101254.00;;;17.37;89.92
55068;BME280;40965;52.368;9.712;2023-09-08T02:44:06;101248.81;;;17.32;90.48
55068;BME280;40965;52.368;9.712;2023-09-08T02:46:33;101246.16;;;17.32;90.55
55068;BME280;40965;52.368;9.712;2023-09-08T02:48:59;101250.69;;;17.29;90.61
55068;BME280;40965;52.368;9.712;2023-09-08T02:51:26;101249.81;;;17.28;90.50
55068;BME280;40965;52.368;9.712;2023-09-08T02:53:53;101251.66;;;17.25;91.32
55068;BME280;40965;52.368;9.712;2023-09-08T02:56:22;101250.91;;;17.21;91.26
55068;BME280;40965;52.368;9.712;2023-09-08T02:58:48;101250.00;;;17.20;91.91
55068;BME280;40965;52.368;9.712;2023-09-08T03:01:16;101247.47;;;17.17;91.84
55068;BME280;40965;52.368;9.712;2023-09-08T03:03:46;101245.72;;;17.16;91.71
55068;BME280;40965;52.368;9.712;2023-09-08T03:06:14;101253.59;;;17.18;91.35
55068;BME280;40965;52.368;9.712;2023-09-08T03:08:41;101247.47;;;17.17;91.41
55068;BME280;40965;52.368;9.712;2023-09-08T03:11:08;101247.56;;;17.13;92.30
55068;BME280;40965;52.368;9.712;2023-09-08T03:13:35;101245.88;;;17.10;91.95
55068;BME280;40965;52.368;9.712;2023-09-08T03:16:03;101246.81;;;17.09;92.21
55068;BME280;40965;52.368;9.712;2023-09-08T03:18:32;101251.31;;;17.06;91.99
55068;BME280;40965;52.368;9.712;2023-09-08T03:21:01;101248.66;;;17.06;92.05
55068;BME280;40965;52.368;9.712;2023-09-08T03:23:35;101243.31;;;17.07;93.05
55068;BME280;40965;52.368;9.712;2023-09-08T03:26:07;101242.56;;;17.02;93.14
55068;BME280;40965;52.368;9.712;2023-09-08T03:28:35;101242.72;;;16.97;92.75
55068;BME280;40965;52.368;9.712;2023-09-08T03:31:03;101240.19;;;16.93;93.19
55068;BME280;40965;52.368;9.712;2023-09-08T03:33:29;101241.13;;;16.89;93.29
55068;BME280;40965;52.368;9.712;2023-09-08T03:35:56;101242.03;;;16.87;93.20
55068;BME280;40965;52.368;9.712;2023-09-08T03:38:22;101247.38;;;16.86;93.16
55068;BME280;40965;52.368;9.712;2023-09-08T03:40:49;101248.38;;;16.80;93.56
55068;BME280;40965;52.368;9.712;2023-09-08T03:43:18;101244.09;;;16.76;94.02
55068;BME280;40965;52.368;9.712;2023-09-08T03:45:45;101237.97;;;16.74;94.42
55068;BME280;40965;52.368;9.712;2023-09-08T03:48:12;101242.38;;;16.75;94.45
55068;BME280;40965;52.368;9.712;2023-09-08T03:50:39;101230.09;;;16.73;94.60
55068;BME280;40965;52.368;9.712;2023-09-08T03:53:11;101235.38;;;16.73;94.85
55068;BME280;40965;52.368;9.712;2023-09-08T03:55:38;101240.81;;;16.66;95.35
55068;BME280;40965;52.368;9.712;2023-09-08T03:58:05;101239.94;;;16.66;95.10
55068;BME280;40965;52.368;9.712;2023-09-08T04:00:36;101238.13;;;16.68;95.00
55068;BME280;40965;52.368;9.712;2023-09-08T04:03:03;101241.75;;;16.64;96.01
55068;BME280;40965;52.368;9.712;2023-09-08T04:05:31;101243.56;;;16.62;95.69
55068;BME280;40965;52.368;9.712;2023-09-08T04:08:01;101236.63;;;16.58;96.55
55068;BME280;40965;52.368;9.712;2023-09-08T04:10:28;101240.19;;;16.55;96.63
55068;BME280;40965;52.368;9.712;2023-09-08T04:12:58;101237.59;;;16.53;96.85
55068;BME280;40965;52.368;9.712;2023-09-08T04:15:24;101234.06;;;16.53;96.75
55068;BME280;40965;52.368;9.712;2023-09-08T04:17:51;101233.16;;;16.54;97.50
55068;BME280;40965;52.368;9.712;2023-09-08T04:20:17;101235.94;;;16.49;97.50
55068;BME280;40965;52.368;9.712;2023-09-08T04:22:44;101231.59;;;16.47;97.63
55068;BME280;40965;52.368;9.712;2023-09-08T04:25:13;101240.44;;;16.46;98.64
55068;BME280;40965;52.368;9.712;2023-09-08T04:27:39;101231.69;;;16.42;98.83
55068;BME280;40965;52.368;9.712;2023-09-08T04:30:13;101237.88;;;16.43;98.77
55068;BME280;40965;52.368;9.712;2023-09-08T04:32:42;101231.66;;;16.44;98.72
55068;BME280;40965;52.368;9.712;2023-09-08T04:35:09;101236.09;;;16.43;98.55
55068;BME280;40965;52.368;9.712;2023-09-08T04:37:37;101222.97;;;16.40;99.41
55068;BME280;40965;52.368;9.712;2023-09-08T04:40:11;101221.28;;;16.36;99.42
55068;BME280;40965;52.368;9.712;2023-09-08T04:42:37;101226.56;;;16.36;99.72
55068;BME280;40965;52.368;9.712;2023-09-08T04:45:04;101226.69;;;16.31;99.99
55068;BME280;40965;52.368;9.712;2023-09-08T04:47:31;101222.44;;;16.26;100.00
55068;BME280;40965;52.368;9.712;2023-09-08T04:49:57;101221.53;;;16.25;100.00
55068;BME280;40965;52.368;9.712;2023-09-08T04:52:24;101221.53;;;16.25;100.00
55068;BME280;40965;52.368;9.712;2023-09-08T04:54:53;101218.09;;;16.23;99.93
55068;BME280;40965;52.368;9.712;2023-09-08T04:57:19;101217.19;;;16.23;99.85
55068;BME280;40965;52.368;9.712;2023-09-08T04:59:46;101218.09;;;16.21;99.74
55068;BME280;40965;52.368;9.712;2023-09-08T05:02:12;101218.97;;;16.22;99.67
55068;BME280;40965;52.368;9.712;2023-09-08T05:04:40;101221.63;;;16.22;99.24
55068;BME280;40965;52.368;9.712;2023-09-08T05:07:06;101228.66;;;16.21;99.34
55068;BME280;40965;52.368;9.712;2023-09-08T05:09:33;101219.03;;;16.20;99.01
55068;BME280;40965;52.368;9.712;2023-09-08T05:11:59;101223.41;;;16.20;99.24
55068;BME280;40965;52.368;9.712;2023-09-08T05:14:26;101224.41;;;16.16;99.54
55068;BME280;40965;52.368;9.712;2023-09-08T05:16:53;101226.19;;;16.14;100.00
55068;BME280;40965;52.368;9.712;2023-09-08T05:19:21;101226.13;;;16.17;99.89
55068;BME280;40965;52.368;9.712;2023-09-08T05:21:50;101224.31;;;16.20;99.89
55068;BME280;40965;52.368;9.712;2023-09-08T05:24:17;101229.59;;;16.19;100.00
55068;BME280;40965;52.368;9.712;2023-09-08T05:26:46;101226.94;;;16.19;100.00
55068;BME280;40965;52.368;9.712;2023-09-08T05:29:13;101231.38;;;16.18;100.00
55068;BME280;40965;52.368;9.712;2023-09-08T05:31:39;101225.19;;;16.19;99.92
55068;BME280;40965;52.368;9.712;2023-09-08T05:34:06;101227.72;;;16.24;99.91
55068;BME280;40965;52.368;9.712;2023-09-08T05:36:32;101228.53;;;16.28;100.00
55068;BME280;40965;52.368;9.712;2023-09-08T05:39:01;101229.28;;;16.33;99.74
55068;BME280;40965;52.368;9.712;2023-09-08T05:41:27;101234.38;;;16.41;99.76
55068;BME280;40965;52.368;9.712;2023-09-08T05:43:54;101235.16;;;16.46;99.30
55068;BME280;40965;52.368;9.712;2023-09-08T05:46:33;101231.50;;;16.50;99.09
55068;BME280;40965;52.368;9.712;2023-09-08T05:49:00;101217.31;;;16.54;98.68
55068;BME280;40965;52.368;9.712;2023-09-08T05:51:29;101221.56;;;16.61;98.36
55068;BME280;40965;52.368;9.712;2023-09-08T05:53:59;101217.94;;;16.65;98.09
55068;BME280;40965;52.368;9.712;2023-09-08T05:56:30;101219.53;;;16.73;98.09
55068;BME280;40965;52.368;9.712;2023-09-08T05:58:59;101222.88;;;16.78;97.61
55068;BME280;40965;52.368;9.712;2023-09-08T06:01:27;101230.72;;;16.82;97.05
55068;BME280;40965;52.368;9.712;2023-09-08T06:03:56;101225.38;;;16.84;97.11
55068;BME280;40965;52.368;9.712;2023-09-08T06:06:23;101221.66;;;16.93;96.58
55068;BME280;40965;52.368;9.712;2023-09-08T06:08:50;101225.88;;;17.00;95.81
55068;BME280;40965;52.368;9.712;2023-09-08T06:11:17;101224.00;;;17.03;95.26
55068;BME280;40965;52.368;9.712;2023-09-08T06:13:43;101225.66;;;17.09;94.78
55068;BME280;40965;52.368;9.712;2023-09-08T06:16:10;101215.91;;;17.10;94.86
55068;BME280;40965;52.368;9.712;2023-09-08T06:18:36;101219.22;;;17.18;94.37
55068;BME280;40965;52.368;9.712;2023-09-08T06:21:08;101223.59;;;17.19;94.08
55068;BME280;40965;52.368;9.712;2023-09-08T06:23:35;101224.34;;;17.24;94.20
55068;BME280;40965;52.368;9.712;2023-09-08T06:26:02;101219.69;;;17.34;93.89
55068;BME280;40965;52.368;9.712;2023-09-08T06:28:28;101223.72;;;17.47;93.27
55068;BME280;40965;52.368;9.712;2023-09-08T06:30:55;101220.63;;;17.63;93.03
55068;BME280;40965;52.368;9.712;2023-09-08T06:33:21;101224.34;;;17.85;92.09
55068;BME280;40965;52.368;9.712;2023-09-08T06:35:48;101225.31;;;18.13;90.86
55068;BME280;40965;52.368;9.712;2023-09-08T06:38:15;101222.72;;;19.42;87.19
55068;BME280;40965;52.368;9.712;2023-09-08T06:40:42;101211.66;;;23.31;63.85
55068;BME280;40965;52.368;9.712;2023-09-08T06:43:08;101213.06;;;25.40;52.71
55068;BME280;40965;52.368;9.712;2023-09-08T06:45:38;101221.25;;;26.77;48.66
55068;BME280;40965;52.368;9.712;2023-09-08T06:48:07;101214.56;;;27.34;46.52
55068;BME280;40965;52.368;9.712;2023-09-08T06:50:34;101217.28;;;28.45;43.87
55068;BME280;40965;52.368;9.712;2023-09-08T06:53:01;101218.94;;;29.17;41.55
55068;BME280;40965;52.368;9.712;2023-09-08T06:55:27;101229.03;;;29.27;41.30
55068;BME280;40965;52.368;9.712;2023-09-08T06:57:54;101220.78;;;29.85;40.13
55068;BME280;40965;52.368;9.712;2023-09-08T07:00:20;101226.59;;;29.58;39.78
55068;BME280;40965;52.368;9.712;2023-09-08T07:02:47;101220.75;;;30.40;39.03
55068;BME280;40965;52.368;9.712;2023-09-08T07:05:17;101227.97;;;30.18;38.14
55068;BME280;40965;52.368;9.712;2023-09-08T07:07:44;101225.13;;;30.64;37.76
55068;BME280;40965;52.368;9.712;2023-09-08T07:10:10;101233.59;;;30.59;37.77
55068;BME280;40965;52.368;9.712;2023-09-08T07:12:38;101233.22;;;30.85;37.08
55068;BME280;40965;52.368;9.712;2023-09-08T07:15:05;101224.16;;;30.96;36.62
55068;BME280;40965;52.368;9.712;2023-09-08T07:17:33;101231.34;;;30.85;37.06
55068;BME280;40965;52.368;9.712;2023-09-08T07:20:00;101222.47;;;31.16;35.92
55068;BME280;40965;52.368;9.712;2023-09-08T07:22:27;101224.06;;;31.18;36.06
55068;BME280;40965;52.368;9.712;2023-09-08T07:24:53;101226.13;;;31.77;35.33
55068;BME280;40965;52.368;9.712;2023-09-08T07:27:20;101224.53;;;32.54;34.51
55068;BME280;40965;52.368;9.712;2023-09-08T07:29:46;101229.53;;;32.39;34.27
55068;BME280;40965;52.368;9.712;2023-09-08T07:32:16;101223.06;;;32.70;33.78
55068;BME280;40965;52.368;9.712;2023-09-08T07:34:43;101221.09;;;32.72;34.31
55068;BME280;40965;52.368;9.712;2023-09-08T07:37:10;101223.97;;;32.21;34.73
55068;BME280;40965;52.368;9.712;2023-09-08T07:39:36;101228.50;;;32.50;34.41
55068;BME280;40965;52.368;9.712;2023-09-08T07:42:03;101226.22;;;32.85;33.93
55068;BME280;40965;52.368;9.712;2023-09-08T07:44:30;101223.97;;;32.51;34.29
55068;BME280;40965;52.368;9.712;2023-09-08T07:47:01;101226.91;;;32.87;33.75
55068;BME280;40965;52.368;9.712;2023-09-08T07:49:28;101223.38;;;32.37;34.08
55068;BME280;40965;52.368;9.712;2023-09-08T07:51:54;101230.25;;;32.22;34.13
55068;BME280;40965;52.368;9.712;2023-09-08T07:54:21;101229.22;;;32.72;33.86
55068;BME280;40965;52.368;9.712;2023-09-08T07:56:48;101234.63;;;32.91;33.62
55068;BME280;40965;52.368;9.712;2023-09-08T07:59:14;101237.75;;;32.96;33.07
55068;BME280;40965;52.368;9.712;2023-09-08T08:01:43;101235.19;;;33.42;32.59
55068;BME280;40965;52.368;9.712;2023-09-08T08:04:10;101238.31;;;33.85;31.84
55068;BME280;40965;52.368;9.712;2023-09-08T08:06:37;101232.47;;;34.44;31.15
55068;BME280;40965;52.368;9.712;2023-09-08T08:09:04;101234.66;;;34.67;30.33
55068;BME280;40965;52.368;9.712;2023-09-08T08:11:33;101239.97;;;34.86;30.29
55068;BME280;40965;52.368;9.712;2023-09-08T08:14:01;101235.31;;;34.60;30.59
55068;BME280;40965;52.368;9.712;2023-09-08T08:16:28;101237.81;;;34.36;30.75
55068;BME280;40965;52.368;9.712;2023-09-08T08:18:55;101236.22;;;34.69;30.37
55068;BME280;40965;52.368;9.712;2023-09-08T08:21:22;101242.50;;;35.14;29.90
55068;BME280;40965;52.368;9.712;2023-09-08T08:23:49;101239.72;;;35.32;29.82
55068;BME280;40965;52.368;9.712;2023-09-08T08:26:16;101241.28;;;34.10;31.23
55068;BME280;40965;52.368;9.712;2023-09-08T08:28:43;101238.81;;;35.23;30.25
55068;BME280;40965;52.368;9.712;2023-09-08T08:31:13;101240.41;;;34.82;30.51
55068;BME280;40965;52.368;9.712;2023-09-08T08:33:42;101236.59;;;34.74;30.78
55068;BME280;40965;52.368;9.712;2023-09-08T08:36:09;101235.25;;;35.23;30.54
55068;BME280;40965;52.368;9.712;2023-09-08T08:38:35;101234.78;;;35.01;30.02
55068;BME280;40965;52.368;9.712;2023-09-08T08:41:03;101236.94;;;34.17;31.46
55068;BME280;40965;52.368;9.712;2023-09-08T08:43:31;101229.47;;;34.19;31.42
55068;BME280;40965;52.368;9.712;2023-09-08T08:45:59;101225.66;;;33.66;32.15
55068;BME280;40965;52.368;9.712;2023-09-08T08:48:27;101233.91;;;33.46;32.75
55068;BME280;40965;52.368;9.712;2023-09-08T08:50:56;101222.44;;;33.80;32.49
55068;BME280;40965;52.368;9.712;2023-09-08T08:53:25;101215.81;;;34.11;31.35
55068;BME280;40965;52.368;9.712;2023-09-08T08:55:54;101220.19;;;33.76;32.48
55068;BME280;40965;52.368;9.712;2023-09-08T08:58:22;101213.38;;;33.62;32.38
55068;BME280;40965;52.368;9.712;2023-09-08T09:00:53;101218.72;;;33.82;32.13
55068;BME280;40965;52.368;9.712;2023-09-08T09:03:25;101208.31;;;33.77;32.53
55068;BME280;40965;52.368;9.712;2023-09-08T09:05:53;101209.81;;;33.89;32.54
55068;BME280;40965;52.368;9.712;2023-09-08T09:08:25;101207.34;;;33.96;31.90
55068;BME280;40965;52.368;9.712;2023-09-08T09:10:53;101210.53;;;33.36;32.91
55068;BME280;40965;52.368;9.712;2023-09-08T09:13:19;101208.16;;;33.78;32.63
55068;BME280;40965;52.368;9.712;2023-09-08T09:15:49;101208.91;;;33.71;32.27
55068;BME280;40965;52.368;9.712;2023-09-08T09:18:16;101208.53;;;34.29;31.74
55068;BME280;40965;52.368;9.712;2023-09-08T09:20:53;101203.88;;;34.40;31.34
55068;BME280;40965;52.368;9.712;2023-09-08T09:23:34;101208.97;;;34.61;31.08
55068;BME280;40965;52.368;9.712;2023-09-08T09:26:02;101208.13;;;34.24;31.55
55068;BME280;40965;52.368;9.712;2023-09-08T09:28:29;101202.16;;;34.57;31.30
55068;BME280;40965;52.368;9.712;2023-09-08T09:30:56;101201.69;;;35.14;30.67
55068;BME280;40965;52.368;9.712;2023-09-08T09:33:24;101200.28;;;34.57;31.75
55068;BME280;40965;52.368;9.712;2023-09-08T09:35:52;101196.94;;;35.16;31.39
55068;BME280;40965;52.368;9.712;2023-09-08T09:38:20;101195.31;;;35.74;30.69
55068;BME280;40965;52.368;9.712;2023-09-08T09:40:48;101196.22;;;35.40;30.05
55068;BME280;40965;52.368;9.712;2023-09-08T09:43:16;101196.97;;;34.45;31.24
55068;BME280;40965;52.368;9.712;2023-09-08T09:45:44;101199.41;;;34.75;31.29
55068;BME280;40965;52.368;9.712;2023-09-08T09:48:11;101195.25;;;35.15;31.53
55068;BME280;40965;52.368;9.712;2023-09-08T09:50:40;101187.16;;;35.83;30.21
55068;BME280;40965;52.368;9.712;2023-09-08T09:53:14;101188.66;;;35.69;30.47
55068;BME280;40965;52.368;9.712;2023-09-08T09:55:44;101185.53;;;36.15;30.03
55068;BME280;40965;52.368;9.712;2023-09-08T09:58:13;101186.69;;;35.96;29.56
55068;BME280;40965;52.368;9.712;2023-09-08T10:00:41;101181.75;;;35.99;30.12
55068;BME280;40965;52.368;9.712;2023-09-08T10:03:13;101183.88;;;36.47;29.36
55068;BME280;40965;52.368;9.712;2023-09-08T10:05:40;101176.50;;;37.36;28.60
55068;BME280;40965;52.368;9.712;2023-09-08T10:08:07;101181.91;;;37.76;28.24
55068;BME280;40965;52.368;9.712;2023-09-08T10:10:34;101177.38;;;36.56;28.92
55068;BME280;40965;52.368;9.712;2023-09-08T10:13:03;101180.59;;;36.68;28.57
55068;BME280;40965;52.368;9.712;2023-09-08T10:15:39;101178.72;;;36.85;28.21
55068;BME280;40965;52.368;9.712;2023-09-08T10:18:07;101182.94;;;36.79;28.11
55068;BME280;40965;52.368;9.712;2023-09-08T10:20:40;101181.25;;;36.78;28.08
55068;BME280;40965;52.368;9.712;2023-09-08T10:23:12;101173.09;;;36.62;28.16
55068;BME280;40965;52.368;9.712;2023-09-08T10:25:45;101177.88;;;37.32;26.86
55068;BME280;40965;52.368;9.712;2023-09-08T10:28:19;101175.03;;;37.88;26.33
55068;BME280;40965;52.368;9.712;2023-09-08T10:30:51;101166.44;;;37.29;26.70
55068;BME280;40965;52.368;9.712;2023-09-08T10:33:18;101161.94;;;37.76;26.76
55068;BME280;40965;52.368;9.712;2023-09-08T10:35:46;101158.88;;;38.02;25.82
55068;BME280;40965;52.368;9.712;2023-09-08T10:38:31;101171.50;;;37.00;27.14
55068;BME280;40965;52.368;9.712;2023-09-08T10:43:58;101168.78;;;37.71;25.97
55068;BME280;40965;52.368;9.712;2023-09-08T10:46:34;101163.13;;;37.73;26.07
55068;BME280;40965;52.368;9.712;2023-09-08T10:49:06;101159.81;;;37.63;26.08
55068;BME280;40965;52.368;9.712;2023-09-08T10:51:36;101152.22;;;37.81;26.16
55068;BME280;40965;52.368;9.712;2023-09-08T10:54:03;101162.84;;;38.76;25.10
55068;BME280;40965;52.368;9.712;2023-09-08T10:56:48;101154.56;;;38.08;25.67
55068;BME280;40965;52.368;9.712;2023-09-08T10:59:28;101158.13;;;38.99;24.60
55068;BME280;40965;52.368;9.712;2023-09-08T11:01:55;101162.00;;;39.05;24.58
55068;BME280;40965;52.368;9.712;2023-09-08T11:04:23;101163.03;;;38.89;24.09
55068;BME280;40965;52.368;9.712;2023-09-08T11:06:53;101153.25;;;38.27;24.48
55068;BME280;40965;52.368;9.712;2023-09-08T11:09:22;101153.88;;;38.05;25.19
55068;BME280;40965;52.368;9.712;2023-09-08T11:11:50;101157.19;;;38.01;24.79
55068;BME280;40965;52.368;9.712;2023-09-08T11:14:16;101158.69;;;39.10;23.90
55068;BME280;40965;52.368;9.712;2023-09-08T11:16:43;101151.63;;;39.15;23.21
55068;BME280;40965;52.368;9.712;2023-09-08T11:19:10;101152.84;;;37.83;24.73
55068;BME280;40965;52.368;9.712;2023-09-08T11:21:38;101141.16;;;39.19;23.67
55068;BME280;40965;52.368;9.712;2023-09-08T11:24:05;101134.03;;;39.76;22.92
55068;BME280;40965;52.368;9.712;2023-09-08T11:26:35;101138.53;;;39.84;22.64
55068;BME280;40965;52.368;9.712;2023-09-08T11:29:02;101141.13;;;39.70;21.72
55068;BME280;40965;52.368;9.712;2023-09-08T11:31:29;101131.28;;;39.40;22.62
55068;BME280;40965;52.368;9.712;2023-09-08T11:33:57;101131.69;;;39.58;22.02
55068;BME280;40965;52.368;9.712;2023-09-08T11:36:29;101121.91;;;39.49;21.85
55068;BME280;40965;52.368;9.712;2023-09-08T11:38:55;101125.91;;;40.61;21.12
55068;BME280;40965;52.368;9.712;2023-09-08T11:41:22;101121.63;;;40.52;20.89
55068;BME280;40965;52.368;9.712;2023-09-08T11:43:49;101127.88;;;39.96;21.48
55068;BME280;40965;52.368;9.712;2023-09-08T11:46:17;101128.44;;;39.84;21.44
55068;BME280;40965;52.368;9.712;2023-09-08T11:48:57;101121.22;;;39.25;21.91
55068;BME280;40965;52.368;9.712;2023-09-08T11:51:26;101123.13;;;38.95;22.02
55068;BME280;40965;52.368;9.712;2023-09-08T11:53:53;101121.97;;;38.59;21.42
55068;BME280;40965;52.368;9.712;2023-09-08T11:56:20;101112.38;;;38.78;21.47
55068;BME280;40965;52.368;9.712;2023-09-08T11:58:47;101112.06;;;38.58;21.61
55068;BME280;40965;52.368;9.712;2023-09-08T12:01:14;101118.47;;;38.65;21.73
55068;BME280;40965;52.368;9.712;2023-09-08T12:03:56;101114.88;;;39.61;20.68
55068;BME280;40965;52.368;9.712;2023-09-08T12:06:25;101107.06;;;40.01;20.51
55068;BME280;40965;52.368;9.712;2023-09-08T12:08:56;101113.03;;;40.33;20.57
55068;BME280;40965;52.368;9.712;2023-09-08T12:11:34;101111.34;;;40.61;20.32
55068;BME280;40965;52.368;9.712;2023-09-08T12:14:08;101102.59;;;40.85;19.80
55068;BME280;40965;52.368;9.712;2023-09-08T12:16:36;101103.66;;;40.91;20.08
55068;BME280;40965;52.368;9.712;2023-09-08T12:19:27;101101.53;;;40.80;19.77
55068;BME280;40965;52.368;9.712;2023-09-08T12:22:01;101097.44;;;40.69;19.66
55068;BME280;40965;52.368;9.712;2023-09-08T12:24:48;101103.81;;;40.76;19.28
55068;BME280;40965;52.368;9.712;2023-09-08T12:27:25;101102.13;;;40.47;19.47
55068;BME280;40965;52.368;9.712;2023-09-08T12:29:58;101099.53;;;40.60;19.77
55068;BME280;40965;52.368;9.712;2023-09-08T12:32:29;101096.78;;;41.02;19.56
55068;BME280;40965;52.368;9.712;2023-09-08T12:34:58;101090.56;;;41.35;19.40
55068;BME280;40965;52.368;9.712;2023-09-08T12:37:29;101088.91;;;41.41;18.80
55068;BME280;40965;52.368;9.712;2023-09-08T12:39:56;101092.72;;;41.46;19.72
55068;BME280;40965;52.368;9.712;2023-09-08T12:42:23;101086.81;;;41.56;19.07
55068;BME280;40965;52.368;9.712;2023-09-08T12:44:51;101082.81;;;39.77;19.90
55068;BME280;40965;52.368;9.712;2023-09-08T12:47:18;101078.53;;;39.96;19.94
55068;BME280;40965;52.368;9.712;2023-09-08T12:49:44;101085.50;;;39.98;19.44
55068;BME280;40965;52.368;9.712;2023-09-08T12:52:19;101080.47;;;40.24;18.92
55068;BME280;40965;52.368;9.712;2023-09-08T12:54:45;101077.41;;;40.75;18.51
55068;BME280;40965;52.368;9.712;2023-09-08T12:57:13;101080.84;;;40.49;18.41
55068;BME280;40965;52.368;9.712;2023-09-08T12:59:40;101064.19;;;40.92;18.53
55068;BME280;40965;52.368;9.712;2023-09-08T13:02:07;101071.06;;;41.16;18.06